EXS17L LMML-LEPA
Flight info
| Callsign | EXS17L |
|---|---|
| Flight time | N/A |
| Altitude | 10100 |
| Route | GZO M622 SOPIR DCT MABOX DCT ADEXI DCT KOVAS DCT RAMEN DCT GOKMI DCT SUPUX DCT KUPIM DCT SUXER DCT RIPAL DCT MORSS |
| Aircraft | B733/M-SDE2E3FHIRW/S |
Departure
| Time | 2026-05-07 16:10 |
|---|---|
| Airport | Malta International Airport (LMML) |
Arrival
| Time | N/A |
|---|---|
| Airport | Palma de Mallorca Airport (LEPA) |
| Time | Latitude | Longitude | Altitude | Speed | Heading |
|---|---|---|---|---|---|
| 2026-05-07 15:48 | 35.84768 | 14.49574 | 246 ft | 0 kts | 359° |
| 2026-05-07 15:58 | 35.84767 | 14.49574 | 246 ft | 0 kts | 359° |
| 2026-05-07 15:59 | 35.84754 | 14.49574 | 246 ft | 2 kts | 1° |
| 2026-05-07 15:59 | 35.84739 | 14.49574 | 247 ft | 2 kts | 359° |
| 2026-05-07 15:59 | 35.84724 | 14.49574 | 247 ft | 2 kts | 360° |
| 2026-05-07 15:59 | 35.84709 | 14.49574 | 247 ft | 2 kts | 359° |
| 2026-05-07 16:00 | 35.84694 | 14.49574 | 247 ft | 2 kts | 359° |
| 2026-05-07 16:00 | 35.84679 | 14.49574 | 247 ft | 2 kts | 359° |
| 2026-05-07 16:00 | 35.84665 | 14.49575 | 247 ft | 2 kts | 340° |
| 2026-05-07 16:00 | 35.84654 | 14.49583 | 247 ft | 1 kts | 311° |
| 2026-05-07 16:01 | 35.84650 | 14.49591 | 247 ft | 0 kts | 261° |
| 2026-05-07 16:01 | 35.84654 | 14.49599 | 247 ft | 2 kts | 212° |
| 2026-05-07 16:01 | 35.84666 | 14.49610 | 246 ft | 2 kts | 229° |
| 2026-05-07 16:01 | 35.84671 | 14.49618 | 246 ft | 0 kts | 225° |
| 2026-05-07 16:04 | 35.84666 | 14.49612 | 246 ft | 2 kts | 225° |
| 2026-05-07 16:05 | 35.84648 | 14.49592 | 247 ft | 4 kts | 213° |
| 2026-05-07 16:05 | 35.84611 | 14.49559 | 247 ft | 8 kts | 222° |
| 2026-05-07 16:05 | 35.84554 | 14.49537 | 248 ft | 10 kts | 153° |
| 2026-05-07 16:05 | 35.84486 | 14.49597 | 248 ft | 13 kts | 146° |
| 2026-05-07 16:06 | 35.84395 | 14.49648 | 250 ft | 14 kts | 162° |
| 2026-05-07 16:06 | 35.84296 | 14.49684 | 250 ft | 15 kts | 163° |
| 2026-05-07 16:06 | 35.84194 | 14.49729 | 250 ft | 16 kts | 153° |
| 2026-05-07 16:06 | 35.84097 | 14.49805 | 250 ft | 17 kts | 141° |
| 2026-05-07 16:07 | 35.84007 | 14.49908 | 250 ft | 18 kts | 134° |
| 2026-05-07 16:07 | 35.83913 | 14.50024 | 250 ft | 19 kts | 135° |
| 2026-05-07 16:07 | 35.83814 | 14.50152 | 248 ft | 21 kts | 134° |
| 2026-05-07 16:07 | 35.83701 | 14.50290 | 244 ft | 24 kts | 135° |
| 2026-05-07 16:08 | 35.83588 | 14.50452 | 242 ft | 25 kts | 123° |
| 2026-05-07 16:08 | 35.83532 | 14.50655 | 239 ft | 20 kts | 101° |
| 2026-05-07 16:08 | 35.83462 | 14.50738 | 237 ft | 15 kts | 216° |
| 2026-05-07 16:08 | 35.83411 | 14.50655 | 237 ft | 7 kts | 242° |
| 2026-05-07 16:09 | 35.83436 | 14.50613 | 238 ft | 7 kts | 328° |
| 2026-05-07 16:09 | 35.83487 | 14.50554 | 239 ft | 13 kts | 314° |
| 2026-05-07 16:09 | 35.83612 | 14.50398 | 243 ft | 51 kts | 314° |
| 2026-05-07 16:09 | 35.84015 | 14.49896 | 250 ft | 111 kts | 315° |
| 2026-05-07 16:10 | 35.84679 | 14.49072 | 261 ft | 156 kts | 314° |
| 2026-05-07 16:10 | 35.85477 | 14.48067 | 491 ft | 169 kts | 313° |
| 2026-05-07 16:10 | 35.86315 | 14.47003 | 893 ft | 176 kts | 313° |
| 2026-05-07 16:10 | 35.87112 | 14.45873 | 1356 ft | 176 kts | 307° |
| 2026-05-07 16:11 | 35.87872 | 14.44686 | 1809 ft | 178 kts | 307° |
| 2026-05-07 16:11 | 35.88625 | 14.43458 | 2240 ft | 181 kts | 307° |
| 2026-05-07 16:11 | 35.89401 | 14.42237 | 2707 ft | 182 kts | 307° |
| 2026-05-07 16:11 | 35.90183 | 14.41013 | 3165 ft | 183 kts | 308° |
| 2026-05-07 16:12 | 35.90978 | 14.39776 | 3543 ft | 189 kts | 308° |
| 2026-05-07 16:12 | 35.91837 | 14.38440 | 3727 ft | 208 kts | 308° |
| 2026-05-07 16:12 | 35.92764 | 14.37012 | 4153 ft | 218 kts | 308° |
| 2026-05-07 16:12 | 35.93719 | 14.35576 | 4822 ft | 218 kts | 308° |
| 2026-05-07 16:13 | 35.94724 | 14.34065 | 5035 ft | 242 kts | 308° |
| 2026-05-07 16:13 | 35.95846 | 14.32379 | 5269 ft | 264 kts | 309° |
| 2026-05-07 16:13 | 35.97037 | 14.30593 | 5826 ft | 273 kts | 309° |
| 2026-05-07 16:13 | 35.98250 | 14.28771 | 6515 ft | 276 kts | 309° |
| 2026-05-07 16:14 | 35.99477 | 14.26929 | 7214 ft | 279 kts | 309° |
| 2026-05-07 16:14 | 36.00713 | 14.25072 | 7905 ft | 281 kts | 309° |
| 2026-05-07 16:14 | 36.01961 | 14.23194 | 8579 ft | 284 kts | 309° |
| 2026-05-07 16:14 | 36.03224 | 14.21296 | 9226 ft | 287 kts | 309° |
| 2026-05-07 16:15 | 36.04694 | 14.19624 | 9840 ft | 290 kts | 324° |
| 2026-05-07 16:15 | 36.06368 | 14.18166 | 10258 ft | 302 kts | 324° |
| 2026-05-07 16:15 | 36.08173 | 14.16583 | 10310 ft | 327 kts | 324° |
| 2026-05-07 16:15 | 36.10068 | 14.14915 | 10580 ft | 343 kts | 324° |
| 2026-05-07 16:16 | 36.12055 | 14.13171 | 11151 ft | 349 kts | 324° |
| 2026-05-07 16:16 | 36.14052 | 14.11412 | 11833 ft | 352 kts | 324° |
| 2026-05-07 16:16 | 36.16057 | 14.09642 | 12458 ft | 356 kts | 323° |
| 2026-05-07 16:16 | 36.18086 | 14.07846 | 13118 ft | 358 kts | 323° |
| 2026-05-07 16:17 | 36.20123 | 14.06041 | 13754 ft | 361 kts | 323° |
| 2026-05-07 16:17 | 36.22174 | 14.04221 | 14373 ft | 364 kts | 323° |
| 2026-05-07 16:17 | 36.24248 | 14.02380 | 14987 ft | 367 kts | 323° |
| 2026-05-07 16:17 | 36.26339 | 14.00522 | 15594 ft | 370 kts | 323° |
| 2026-05-07 16:18 | 36.28448 | 13.98647 | 16183 ft | 373 kts | 323° |
| 2026-05-07 16:18 | 36.30572 | 13.96757 | 16764 ft | 377 kts | 323° |
| 2026-05-07 16:18 | 36.32711 | 13.94852 | 17336 ft | 379 kts | 323° |
| 2026-05-07 16:18 | 36.34867 | 13.92930 | 17897 ft | 382 kts | 323° |
| 2026-05-07 16:19 | 36.37040 | 13.90993 | 18435 ft | 385 kts | 323° |
| 2026-05-07 16:19 | 36.39233 | 13.89035 | 18965 ft | 388 kts | 323° |
| 2026-05-07 16:19 | 36.41440 | 13.87065 | 19482 ft | 391 kts | 323° |
| 2026-05-07 16:19 | 36.43667 | 13.85075 | 19992 ft | 394 kts | 323° |
| 2026-05-07 16:20 | 36.45901 | 13.83077 | 20482 ft | 397 kts | 323° |
| 2026-05-07 16:20 | 36.48158 | 13.81057 | 20964 ft | 400 kts | 323° |
| 2026-05-07 16:20 | 36.50429 | 13.79021 | 21428 ft | 403 kts | 323° |
| 2026-05-07 16:20 | 36.52712 | 13.76962 | 21884 ft | 406 kts | 323° |
| 2026-05-07 16:21 | 36.55018 | 13.74887 | 22338 ft | 409 kts | 323° |
| 2026-05-07 16:21 | 36.57334 | 13.72805 | 22785 ft | 411 kts | 323° |
| 2026-05-07 16:21 | 36.59666 | 13.70710 | 23222 ft | 414 kts | 323° |
| 2026-05-07 16:21 | 36.62007 | 13.68606 | 23653 ft | 416 kts | 323° |
| 2026-05-07 16:22 | 36.64364 | 13.66486 | 24080 ft | 418 kts | 323° |
| 2026-05-07 16:22 | 36.66735 | 13.64352 | 24498 ft | 420 kts | 323° |
| 2026-05-07 16:22 | 36.69120 | 13.62203 | 24899 ft | 423 kts | 323° |
| 2026-05-07 16:22 | 36.71515 | 13.60044 | 25291 ft | 425 kts | 323° |
| 2026-05-07 16:23 | 36.73927 | 13.57868 | 25682 ft | 428 kts | 323° |
| 2026-05-07 16:23 | 36.76348 | 13.55681 | 26066 ft | 430 kts | 323° |
| 2026-05-07 16:23 | 36.78785 | 13.53480 | 26439 ft | 432 kts | 323° |
| 2026-05-07 16:23 | 36.81234 | 13.51265 | 26814 ft | 434 kts | 323° |
| 2026-05-07 16:24 | 36.83694 | 13.49038 | 27183 ft | 436 kts | 323° |
| 2026-05-07 16:24 | 36.86162 | 13.46803 | 27554 ft | 438 kts | 323° |
| 2026-05-07 16:24 | 36.88628 | 13.44567 | 28010 ft | 437 kts | 323° |
| 2026-05-07 16:24 | 36.91088 | 13.42335 | 28519 ft | 435 kts | 323° |
| 2026-05-07 16:25 | 36.93533 | 13.40115 | 29015 ft | 432 kts | 323° |
| 2026-05-07 16:25 | 36.95967 | 13.37904 | 29460 ft | 431 kts | 323° |
| 2026-05-07 16:25 | 36.98395 | 13.35695 | 29882 ft | 430 kts | 323° |
| 2026-05-07 16:25 | 37.00813 | 13.33490 | 30244 ft | 430 kts | 323° |
| 2026-05-07 16:26 | 37.03233 | 13.31273 | 30601 ft | 430 kts | 323° |
| 2026-05-07 16:26 | 37.05647 | 13.29066 | 30996 ft | 428 kts | 323° |
| 2026-05-07 16:26 | 37.08060 | 13.26862 | 31373 ft | 427 kts | 323° |
| 2026-05-07 16:26 | 37.10460 | 13.24669 | 31725 ft | 427 kts | 323° |
| 2026-05-07 16:27 | 37.12870 | 13.22476 | 31968 ft | 428 kts | 323° |
| 2026-05-07 16:27 | 37.15284 | 13.20278 | 32296 ft | 428 kts | 323° |
| 2026-05-07 16:27 | 37.17687 | 13.18070 | 32650 ft | 426 kts | 323° |
| 2026-05-07 16:27 | 37.20077 | 13.15865 | 32999 ft | 425 kts | 323° |
| 2026-05-07 16:28 | 37.22467 | 13.13666 | 33322 ft | 424 kts | 323° |
| 2026-05-07 16:28 | 37.24853 | 13.11476 | 33612 ft | 424 kts | 323° |
| 2026-05-07 16:28 | 37.27233 | 13.09289 | 33890 ft | 423 kts | 323° |
| 2026-05-07 16:28 | 37.29619 | 13.07098 | 34164 ft | 423 kts | 323° |
| 2026-05-07 16:29 | 37.31995 | 13.04913 | 34436 ft | 422 kts | 323° |
| 2026-05-07 16:29 | 37.34379 | 13.02716 | 34710 ft | 422 kts | 322° |
| 2026-05-07 16:29 | 37.36446 | 13.00136 | 34908 ft | 419 kts | 306° |
| 2026-05-07 16:29 | 37.38140 | 12.97136 | 35105 ft | 420 kts | 304° |
| 2026-05-07 16:30 | 37.39839 | 12.94148 | 35310 ft | 420 kts | 306° |
| 2026-05-07 16:30 | 37.41595 | 12.91190 | 35537 ft | 420 kts | 307° |
| 2026-05-07 16:30 | 37.43365 | 12.88277 | 35781 ft | 419 kts | 307° |
| 2026-05-07 16:30 | 37.45150 | 12.85365 | 35972 ft | 419 kts | 307° |
| 2026-05-07 16:31 | 37.46938 | 12.82453 | 36026 ft | 419 kts | 307° |
| 2026-05-07 16:31 | 37.50512 | 12.76629 | 36001 ft | 417 kts | 307° |
| 2026-05-07 16:32 | 37.54065 | 12.70829 | 35996 ft | 417 kts | 307° |
| 2026-05-07 16:32 | 37.57613 | 12.65028 | 35996 ft | 417 kts | 307° |
| 2026-05-07 16:33 | 37.61156 | 12.59223 | 36000 ft | 416 kts | 307° |
| 2026-05-07 16:33 | 37.64698 | 12.53413 | 35997 ft | 416 kts | 307° |
| 2026-05-07 16:34 | 37.68229 | 12.47608 | 35995 ft | 417 kts | 307° |
| 2026-05-07 16:34 | 37.71761 | 12.41792 | 35999 ft | 416 kts | 307° |
| 2026-05-07 16:35 | 37.75287 | 12.35975 | 35996 ft | 416 kts | 307° |
| 2026-05-07 16:35 | 37.78811 | 12.30133 | 35997 ft | 416 kts | 306° |
| 2026-05-07 16:36 | 37.82338 | 12.24283 | 35999 ft | 417 kts | 306° |
| 2026-05-07 16:36 | 37.85864 | 12.18435 | 35998 ft | 417 kts | 306° |
| 2026-05-07 16:37 | 37.89391 | 12.12574 | 35997 ft | 417 kts | 306° |
| 2026-05-07 16:37 | 37.92914 | 12.06711 | 35997 ft | 417 kts | 306° |
| 2026-05-07 16:38 | 37.96438 | 12.00836 | 35998 ft | 418 kts | 306° |
| 2026-05-07 16:38 | 37.99957 | 11.94958 | 35998 ft | 417 kts | 306° |
| 2026-05-07 16:39 | 38.03470 | 11.89080 | 35997 ft | 417 kts | 306° |
| 2026-05-07 16:39 | 38.06979 | 11.83198 | 35996 ft | 417 kts | 306° |
| 2026-05-07 16:40 | 38.10487 | 11.77309 | 35991 ft | 418 kts | 307° |
| 2026-05-07 16:40 | 38.14013 | 11.71415 | 36000 ft | 418 kts | 307° |
| 2026-05-07 16:41 | 38.17526 | 11.65505 | 36000 ft | 418 kts | 306° |
| 2026-05-07 16:41 | 38.21035 | 11.59581 | 35998 ft | 418 kts | 306° |
| 2026-05-07 16:42 | 38.24541 | 11.53651 | 35996 ft | 419 kts | 306° |
| 2026-05-07 16:42 | 38.28046 | 11.47712 | 35998 ft | 419 kts | 306° |
| 2026-05-07 16:43 | 38.31545 | 11.41771 | 35997 ft | 418 kts | 306° |
| 2026-05-07 16:43 | 38.35042 | 11.35825 | 35997 ft | 419 kts | 306° |
| 2026-05-07 16:44 | 38.38534 | 11.29855 | 35996 ft | 418 kts | 306° |
| 2026-05-07 16:44 | 38.42024 | 11.23889 | 35998 ft | 419 kts | 306° |
| 2026-05-07 16:45 | 38.45512 | 11.17923 | 35998 ft | 418 kts | 306° |
| 2026-05-07 16:45 | 38.48991 | 11.11962 | 35997 ft | 418 kts | 306° |
| 2026-05-07 16:46 | 38.52474 | 11.05984 | 35997 ft | 418 kts | 306° |
| 2026-05-07 16:46 | 38.55945 | 11.00016 | 35997 ft | 418 kts | 306° |
| 2026-05-07 16:47 | 38.59408 | 10.94050 | 35997 ft | 418 kts | 306° |
| 2026-05-07 16:47 | 38.62885 | 10.88050 | 35998 ft | 418 kts | 306° |
| 2026-05-07 16:48 | 38.66351 | 10.82057 | 35997 ft | 418 kts | 306° |
| 2026-05-07 16:48 | 38.69817 | 10.76052 | 35997 ft | 418 kts | 306° |
| 2026-05-07 16:49 | 38.73281 | 10.70041 | 35997 ft | 419 kts | 306° |
| 2026-05-07 16:49 | 38.76739 | 10.64027 | 35997 ft | 418 kts | 306° |
| 2026-05-07 16:50 | 38.80196 | 10.58006 | 35996 ft | 419 kts | 306° |
| 2026-05-07 16:50 | 38.83655 | 10.51969 | 35998 ft | 419 kts | 306° |
| 2026-05-07 16:51 | 38.87108 | 10.45932 | 35996 ft | 419 kts | 306° |
| 2026-05-07 16:51 | 38.90561 | 10.39884 | 35996 ft | 420 kts | 306° |
| 2026-05-07 16:52 | 38.94015 | 10.33820 | 35988 ft | 420 kts | 305° |
| 2026-05-07 16:52 | 38.97455 | 10.27750 | 35994 ft | 419 kts | 305° |
| 2026-05-07 16:53 | 39.00904 | 10.21668 | 35999 ft | 420 kts | 305° |
| 2026-05-07 16:53 | 39.04351 | 10.15583 | 35998 ft | 420 kts | 305° |
| 2026-05-07 16:54 | 39.07785 | 10.09511 | 35997 ft | 420 kts | 305° |
| 2026-05-07 16:54 | 39.11227 | 10.03422 | 35971 ft | 419 kts | 305° |
| 2026-05-07 16:55 | 39.14678 | 9.97333 | 35993 ft | 419 kts | 305° |
| 2026-05-07 16:55 | 39.18104 | 9.91248 | 35997 ft | 419 kts | 305° |
| 2026-05-07 16:56 | 39.21527 | 9.85149 | 35997 ft | 419 kts | 305° |
| 2026-05-07 16:56 | 39.26663 | 9.75976 | 35998 ft | 419 kts | 305° |
| 2026-05-07 16:57 | 39.30075 | 9.69866 | 35996 ft | 419 kts | 305° |
| 2026-05-07 16:57 | 39.33488 | 9.63744 | 35998 ft | 418 kts | 305° |
| 2026-05-07 16:58 | 39.36895 | 9.57620 | 35996 ft | 419 kts | 305° |
| 2026-05-07 16:58 | 39.40305 | 9.51481 | 35999 ft | 419 kts | 305° |
| 2026-05-07 16:59 | 39.43710 | 9.45337 | 35996 ft | 419 kts | 305° |
| 2026-05-07 16:59 | 39.47110 | 9.39191 | 35996 ft | 419 kts | 305° |
| 2026-05-07 17:00 | 39.50505 | 9.33038 | 35966 ft | 420 kts | 304° |
| 2026-05-07 17:00 | 39.53905 | 9.26848 | 35996 ft | 420 kts | 304° |
| 2026-05-07 17:01 | 39.57299 | 9.20673 | 35999 ft | 420 kts | 304° |
| 2026-05-07 17:01 | 39.60697 | 9.14483 | 35996 ft | 419 kts | 304° |
| 2026-05-07 17:02 | 39.64083 | 9.08302 | 35996 ft | 419 kts | 304° |
| 2026-05-07 17:02 | 39.65951 | 9.05397 | 35963 ft | 419 kts | 320° |
| 2026-05-07 17:02 | 39.68408 | 9.03342 | 36030 ft | 420 kts | 330° |
| 2026-05-07 17:03 | 39.73529 | 8.99542 | 35996 ft | 422 kts | 327° |
| 2026-05-07 17:03 | 39.78520 | 8.95480 | 35997 ft | 422 kts | 326° |
| 2026-05-07 17:04 | 39.83253 | 8.90961 | 36000 ft | 420 kts | 318° |
| 2026-05-07 17:04 | 39.87696 | 8.85981 | 35997 ft | 420 kts | 319° |
| 2026-05-07 17:05 | 39.92183 | 8.81047 | 35995 ft | 421 kts | 319° |
| 2026-05-07 17:05 | 39.96680 | 8.76120 | 35997 ft | 422 kts | 319° |
| 2026-05-07 17:06 | 40.01186 | 8.71175 | 35998 ft | 422 kts | 319° |
| 2026-05-07 17:06 | 40.05682 | 8.66233 | 35997 ft | 422 kts | 319° |
| 2026-05-07 17:07 | 40.10189 | 8.61270 | 35997 ft | 422 kts | 319° |
| 2026-05-07 17:07 | 40.14709 | 8.56309 | 35996 ft | 422 kts | 319° |
| 2026-05-07 17:08 | 40.19217 | 8.51335 | 35999 ft | 423 kts | 319° |
| 2026-05-07 17:08 | 40.23715 | 8.46356 | 35998 ft | 423 kts | 319° |
| 2026-05-07 17:09 | 40.28231 | 8.41347 | 35996 ft | 423 kts | 319° |
| 2026-05-07 17:09 | 40.32729 | 8.36349 | 36011 ft | 420 kts | 319° |
| 2026-05-07 17:10 | 40.37173 | 8.31388 | 35979 ft | 416 kts | 319° |
| 2026-05-07 17:10 | 40.41602 | 8.26436 | 35995 ft | 418 kts | 319° |
| 2026-05-07 17:11 | 40.45615 | 8.20985 | 35976 ft | 414 kts | 294° |
| 2026-05-07 17:11 | 40.46402 | 8.17364 | 35982 ft | 415 kts | 272° |
| 2026-05-07 17:11 | 40.46065 | 8.13606 | 35988 ft | 416 kts | 250° |
| 2026-05-07 17:12 | 40.43569 | 8.06710 | 35978 ft | 419 kts | 253° |
| 2026-05-07 17:12 | 40.42468 | 7.99208 | 36006 ft | 419 kts | 261° |
| 2026-05-07 17:13 | 40.41454 | 7.91663 | 36000 ft | 418 kts | 261° |
| 2026-05-07 17:13 | 40.40479 | 7.84142 | 35996 ft | 418 kts | 261° |
| 2026-05-07 17:14 | 40.39521 | 7.76611 | 35998 ft | 418 kts | 261° |
| 2026-05-07 17:14 | 40.38561 | 7.69076 | 35998 ft | 418 kts | 261° |
| 2026-05-07 17:15 | 40.37596 | 7.61548 | 35998 ft | 418 kts | 261° |
| 2026-05-07 17:15 | 40.36627 | 7.54022 | 35997 ft | 417 kts | 261° |
| 2026-05-07 17:16 | 40.35654 | 7.46504 | 35998 ft | 417 kts | 261° |
| 2026-05-07 17:16 | 40.34677 | 7.39002 | 35997 ft | 417 kts | 261° |
| 2026-05-07 17:17 | 40.33694 | 7.31489 | 35962 ft | 417 kts | 260° |
| 2026-05-07 17:17 | 40.32695 | 7.23997 | 35995 ft | 418 kts | 260° |
| 2026-05-07 17:18 | 40.31697 | 7.16492 | 35998 ft | 418 kts | 261° |
| 2026-05-07 17:18 | 40.30699 | 7.08970 | 35997 ft | 418 kts | 261° |
| 2026-05-07 17:19 | 40.29700 | 7.01479 | 35997 ft | 417 kts | 261° |
| 2026-05-07 17:19 | 40.28696 | 6.93987 | 35996 ft | 417 kts | 261° |
| 2026-05-07 17:20 | 40.27686 | 6.86489 | 35998 ft | 417 kts | 260° |
| 2026-05-07 17:20 | 40.26672 | 6.78997 | 35996 ft | 417 kts | 260° |
| 2026-05-07 17:21 | 40.25655 | 6.71520 | 35996 ft | 417 kts | 260° |
| 2026-05-07 17:21 | 40.24631 | 6.64032 | 35997 ft | 418 kts | 261° |
| 2026-05-07 17:22 | 40.23601 | 6.56537 | 35997 ft | 418 kts | 261° |
| 2026-05-07 17:22 | 40.22566 | 6.49041 | 35998 ft | 418 kts | 261° |
| 2026-05-07 17:23 | 40.21525 | 6.41538 | 35997 ft | 418 kts | 261° |
| 2026-05-07 17:23 | 40.20478 | 6.34034 | 35989 ft | 419 kts | 260° |
| 2026-05-07 17:24 | 40.19430 | 6.26530 | 35994 ft | 418 kts | 260° |
| 2026-05-07 17:24 | 40.18373 | 6.19020 | 35999 ft | 419 kts | 260° |